Date,TemperatureHighF,TemperatureAvgF,TemperatureLowF,DewpointHighF,DewpointAvgF,DewpointLowF,HumidityHigh,HumidityAvg,HumidityLow,PressureMaxIn,PressureMinIn,WindSpeedMaxMPH,WindSpeedAvgMPH,GustSpeedMaxMPH,PrecipitationSumIn
2013-4-1,76,64,50,-100,-100,-100,0,0,100,0.00,40.00,0,-999,0,0.00
2013-4-2,67,58,47,-100,-100,-100,0,0,100,0.00,40.00,0,-999,0,0.00
2013-4-3,75,62,49,-100,-100,-100,0,0,100,0.00,40.00,0,-999,0,0.00
2013-4-4,80,66,48,-100,-100,-100,0,0,100,0.00,40.00,0,-999,0,0.00
2013-4-5,81,72,60,-100,-100,-100,0,0,100,0.00,40.00,0,-999,0,0.00
2013-4-6,81,71,57,-100,-100,-100,0,0,100,0.00,40.00,0,-999,0,0.00
2013-4-7,80,69,55,-100,-100,-100,0,0,100,0.00,40.00,0,-999,0,0.00
2013-4-8,68,59,49,-100,-100,-100,0,0,100,0.00,40.00,0,-999,0,0.00
2013-4-9,56,50,46,-100,-100,-100,0,0,100,0.00,40.00,0,-999,0,0.00
2013-4-10,61,51,42,-100,-100,-100,0,0,100,0.00,40.00,0,-999,0,0.00
2013-4-11,69,58,46,-100,-100,-100,0,0,100,0.00,40.00,0,-999,0,0.00
2013-4-12,74,61,45,-100,-100,-100,0,0,100,0.00,40.00,0,-999,0,0.00
2013-4-13,81,66,47,-100,-100,-100,0,0,100,0.00,40.00,0,-999,0,0.00
2013-4-14,81,71,61,-100,-100,-100,0,0,100,0.00,40.00,0,-999,0,0.00
2013-4-15,80,72,62,-100,-100,-100,0,0,100,0.00,40.00,0,-999,0,0.00
2013-4-16,67,60,50,-100,-100,-100,0,0,100,0.00,40.00,0,-999,0,0.00
2013-4-17,56,50,45,-100,-100,-100,0,0,100,0.00,40.00,0,-999,0,0.00
2013-4-18,60,52,43,-100,-100,-100,0,0,100,0.00,40.00,0,-999,0,0.00
2013-4-19,70,57,40,-100,-100,-100,0,0,100,0.00,40.00,0,-999,0,0.00
2013-4-20,74,66,56,-100,-100,-100,0,0,100,0.00,40.00,0,-999,0,0.00
2013-4-21,83,66,49,-100,-100,-100,0,0,100,0.00,40.00,0,-999,0,0.00
2013-4-22,86,71,53,-100,-100,-100,0,0,100,0.00,40.00,0,-999,0,0.00
2013-4-23,68,60,53,-100,-100,-100,0,0,100,0.00,40.00,0,-999,0,0.00
2013-4-24,73,60,45,-100,-100,-100,0,0,100,0.00,40.00,0,-999,0,0.00
2013-4-25,76,64,48,-100,-100,-100,0,0,100,0.00,40.00,0,-999,0,0.00
2013-4-26,82,69,51,-100,-100,-100,0,0,100,0.00,40.00,0,-999,0,0.00
2013-4-27,82,71,53,-100,-100,-100,0,0,100,0.00,40.00,0,-999,0,0.00
2013-4-28,88,71,51,-100,-100,-100,0,0,100,0.00,40.00,0,-999,0,0.00
2013-4-29,93,77,59,-100,-100,-100,0,0,100,0.00,40.00,0,-999,0,0.00
2013-4-30,93,85,73,-100,-100,-100,0,0,100,0.00,40.00,0,-999,0,0.00